createdAt,value
2019-03-10T00:02:42.028Z,4.70
2019-03-10T00:07:37.988Z,4.60
2019-03-10T00:12:33.742Z,4.60
2019-03-10T00:17:29.725Z,4.60
2019-03-10T00:22:28.460Z,4.50
2019-03-10T00:27:25.616Z,4.40
2019-03-10T00:32:21.391Z,4.40
2019-03-10T00:37:17.364Z,4.30
2019-03-10T00:42:49.133Z,4.20
2019-03-10T00:48:29.041Z,4.10
2019-03-10T00:53:24.799Z,4.10
2019-03-10T00:58:20.632Z,4.10
2019-03-10T01:03:16.389Z,4.00
2019-03-10T01:08:15.218Z,4.00
2019-03-10T01:13:11.143Z,3.90
2019-03-10T01:18:07.314Z,3.80
2019-03-10T01:23:02.972Z,3.90
2019-03-10T01:27:58.837Z,3.80
2019-03-10T01:33:29.880Z,3.70
2019-03-10T01:38:25.623Z,3.60
2019-03-10T01:43:21.355Z,3.90
2019-03-10T01:48:17.137Z,4.10
2019-03-10T01:53:12.817Z,4.20
2019-03-10T01:58:08.734Z,4.30
2019-03-10T02:03:04.476Z,4.50
2019-03-10T02:08:00.393Z,5.40
2019-03-10T02:12:56.078Z,7.40
2019-03-10T02:17:51.875Z,8.70
2019-03-10T02:22:47.626Z,9.30
2019-03-10T02:27:43.446Z,9.60
2019-03-10T02:32:39.155Z,9.60
2019-03-10T02:37:35.345Z,9.70
2019-03-10T02:42:31.534Z,9.80
2019-03-10T02:47:27.448Z,9.80
2019-03-10T02:52:23.134Z,9.90
2019-03-10T02:57:18.839Z,10.00
2019-03-10T03:02:14.615Z,10.00
2019-03-10T03:07:10.363Z,10.20
2019-03-10T03:12:06.077Z,10.30
2019-03-10T03:17:01.918Z,10.30
2019-03-10T03:21:57.628Z,10.30
2019-03-10T03:26:53.417Z,10.20
2019-03-10T03:31:49.265Z,10.10
2019-03-10T03:36:45.047Z,9.90
2019-03-10T03:41:40.782Z,9.90
2019-03-10T03:46:36.623Z,9.60
2019-03-10T03:51:32.734Z,9.60
2019-03-10T03:56:28.553Z,9.50
2019-03-10T04:01:43.065Z,9.10
2019-03-10T04:06:38.960Z,8.80
2019-03-10T04:11:34.621Z,8.60
2019-03-10T04:16:30.617Z,8.60
2019-03-10T04:21:26.373Z,8.50
2019-03-10T04:26:22.410Z,8.40
2019-03-10T04:31:18.239Z,8.20
2019-03-10T04:36:14.086Z,7.90
2019-03-10T04:41:09.799Z,7.70
2019-03-10T04:46:06.026Z,7.30
2019-03-10T04:51:01.801Z,7.00
2019-03-10T04:56:12.175Z,6.80
2019-03-10T05:01:07.929Z,6.70
2019-03-10T05:06:03.648Z,6.50
2019-03-10T05:10:59.744Z,6.30
2019-03-10T05:15:56.386Z,6.20
2019-03-10T05:20:52.153Z,6.10
2019-03-10T05:25:48.720Z,5.90
2019-03-10T05:30:44.632Z,5.80
2019-03-10T05:35:40.480Z,5.60
2019-03-10T05:40:36.596Z,5.50
2019-03-10T05:45:32.442Z,5.40
2019-03-10T05:50:28.211Z,5.20
2019-03-10T05:55:23.895Z,5.10
2019-03-10T06:00:19.750Z,5.10
2019-03-10T06:05:15.544Z,5.00
2019-03-10T06:10:11.204Z,5.10
2019-03-10T06:15:09.239Z,5.30
2019-03-10T06:20:05.117Z,5.50
2019-03-10T06:25:00.821Z,5.60
2019-03-10T06:29:56.632Z,5.60
2019-03-10T06:34:52.599Z,5.70
2019-03-10T06:39:48.481Z,5.70
2019-03-10T06:44:45.030Z,5.70
2019-03-10T06:49:40.933Z,5.80
2019-03-10T06:54:36.658Z,6.00
2019-03-10T06:59:32.399Z,6.30
2019-03-10T07:04:28.417Z,6.60
2019-03-10T07:09:24.156Z,6.80
2019-03-10T07:14:20.019Z,7.00
2019-03-10T07:19:15.838Z,7.30
2019-03-10T07:24:11.641Z,7.60
2019-03-10T07:29:12.708Z,7.80
2019-03-10T07:34:33.399Z,8.00
2019-03-10T07:39:54.252Z,8.20
2019-03-10T07:45:24.747Z,8.40
2019-03-10T07:50:39.429Z,8.80
2019-03-10T07:56:06.689Z,9.20
2019-03-10T08:01:30.283Z,9.50
2019-03-10T08:06:48.958Z,9.90
2019-03-10T08:12:04.516Z,10.40
2019-03-10T08:17:13.018Z,10.70
2019-03-10T08:22:43.121Z,11.20
2019-03-10T08:28:01.524Z,11.80
2019-03-10T08:33:13.943Z,12.10
2019-03-10T08:38:34.420Z,12.10
2019-03-10T08:43:51.667Z,12.20
2019-03-10T08:49:09.405Z,12.30
2019-03-10T08:54:29.930Z,12.40
2019-03-10T08:59:34.951Z,12.50
2019-03-10T09:04:49.411Z,12.70
2019-03-10T09:10:06.924Z,12.90
2019-03-10T09:15:23.140Z,13.10
2019-03-10T09:20:40.669Z,13.20
2019-03-10T09:26:10.549Z,13.40
2019-03-10T09:31:37.558Z,13.30
2019-03-10T09:36:55.385Z,13.30
2019-03-10T09:42:03.225Z,13.40
2019-03-10T09:47:27.211Z,13.80
2019-03-10T09:52:42.757Z,14.00
2019-03-10T09:57:56.088Z,14.20
2019-03-10T10:03:01.501Z,14.30
2019-03-10T10:08:16.335Z,14.30
2019-03-10T10:13:23.239Z,14.40
2019-03-10T10:18:38.153Z,14.60
2019-03-10T10:23:59.092Z,14.80
2019-03-10T10:29:16.926Z,15.10
2019-03-10T10:34:37.721Z,15.10
2019-03-10T10:39:51.966Z,15.20
2019-03-10T10:45:12.491Z,15.30
2019-03-10T10:50:26.679Z,15.30
2019-03-10T10:55:40.277Z,15.30
2019-03-10T11:00:48.003Z,15.30
2019-03-10T11:06:19.906Z,15.50
2019-03-10T11:11:33.207Z,15.80
2019-03-10T11:16:54.003Z,16.00
2019-03-10T11:22:08.646Z,16.00
2019-03-10T11:27:29.823Z,16.00
2019-03-10T11:32:47.248Z,16.70
2019-03-10T11:38:11.334Z,17.20
2019-03-10T11:43:12.823Z,17.50
2019-03-10T11:48:30.300Z,18.20
2019-03-10T11:53:31.222Z,18.90
2019-03-10T11:58:35.312Z,18.60
2019-03-10T12:04:05.199Z,18.90
2019-03-10T12:09:20.929Z,18.80
2019-03-10T12:14:16.962Z,18.90
2019-03-10T12:19:12.647Z,18.40
2019-03-10T12:24:08.427Z,18.40
2019-03-10T12:29:04.431Z,19.20
2019-03-10T12:34:01.393Z,19.30
2019-03-10T12:38:58.135Z,19.40
2019-03-10T12:43:53.993Z,19.30
2019-03-10T12:48:50.146Z,19.10
2019-03-10T12:53:45.940Z,19.10
2019-03-10T12:58:41.819Z,18.90
2019-03-10T13:03:38.579Z,19.60
2019-03-10T13:08:35.408Z,19.40
2019-03-10T13:13:32.275Z,19.50
2019-03-10T13:18:27.121Z,20.00
2019-03-10T13:23:23.009Z,19.30
2019-03-10T13:28:19.869Z,19.30
2019-03-10T13:33:15.623Z,19.30
2019-03-10T13:38:12.480Z,19.40
2019-03-10T13:43:08.237Z,19.50
2019-03-10T13:48:04.290Z,18.90
2019-03-10T13:53:00.008Z,18.50
2019-03-10T13:57:55.845Z,18.40
2019-03-10T14:02:51.793Z,17.90
2019-03-10T14:07:48.029Z,17.90
2019-03-10T14:12:43.776Z,17.80
2019-03-10T14:17:39.520Z,18.50
2019-03-10T14:22:35.314Z,19.60
2019-03-10T14:27:31.172Z,20.20
2019-03-10T14:32:26.860Z,20.40
2019-03-10T14:37:22.541Z,19.70
2019-03-10T14:42:18.355Z,18.80
2019-03-10T14:47:14.211Z,18.90
2019-03-10T14:52:10.026Z,18.50
2019-03-10T14:57:06.130Z,17.90
2019-03-10T15:02:02.036Z,17.60
2019-03-10T15:06:57.974Z,18.00
2019-03-10T15:11:54.225Z,18.80
2019-03-10T15:16:50.082Z,19.40
2019-03-10T15:21:53.791Z,19.50
2019-03-10T15:26:49.899Z,20.00
2019-03-10T15:31:45.714Z,20.50
2019-03-10T15:36:41.522Z,19.70
2019-03-10T15:41:37.331Z,19.80
2019-03-10T15:46:33.089Z,19.00
2019-03-10T15:51:29.736Z,17.90
2019-03-10T15:56:25.724Z,18.90
2019-03-10T16:01:22.659Z,17.50
2019-03-10T16:06:18.529Z,16.60
2019-03-10T16:11:15.255Z,16.00
2019-03-10T16:16:13.358Z,15.50
2019-03-10T16:21:09.765Z,15.40
2019-03-10T16:26:05.941Z,15.10
2019-03-10T16:31:02.584Z,15.00
2019-03-10T16:36:01.270Z,14.90
2019-03-10T16:40:57.130Z,14.80
2019-03-10T16:45:53.117Z,14.70
2019-03-10T16:50:49.995Z,14.60
2019-03-10T16:55:47.300Z,14.50
2019-03-10T17:00:43.135Z,14.40
2019-03-10T17:05:39.048Z,14.30
2019-03-10T17:10:35.074Z,14.30
2019-03-10T17:15:31.036Z,14.20
2019-03-10T17:20:26.811Z,14.10
2019-03-10T17:25:22.730Z,14.00
2019-03-10T17:30:19.448Z,14.00
2019-03-10T17:35:16.183Z,13.90
2019-03-10T17:40:14.863Z,13.80
2019-03-10T17:45:11.450Z,13.70
2019-03-10T17:50:07.729Z,13.70
2019-03-10T17:55:03.658Z,13.60
2019-03-10T17:59:59.691Z,13.60
2019-03-10T18:04:57.064Z,13.60
2019-03-10T18:09:54.882Z,13.50
2019-03-10T18:14:50.820Z,13.50
2019-03-10T18:19:46.648Z,13.40
2019-03-10T18:24:42.395Z,13.40
2019-03-10T18:29:38.808Z,13.30
2019-03-10T18:34:35.511Z,13.30
2019-03-10T18:39:31.674Z,13.20
2019-03-10T18:44:27.533Z,13.10
2019-03-10T18:49:23.281Z,13.10
2019-03-10T18:54:19.062Z,13.20
2019-03-10T18:59:14.961Z,13.10
2019-03-10T19:04:14.080Z,13.10
2019-03-10T19:09:11.120Z,13.10
2019-03-10T19:14:07.090Z,13.10
2019-03-10T19:19:02.905Z,13.00
2019-03-10T19:23:58.675Z,13.00
2019-03-10T19:28:54.532Z,12.90
2019-03-10T19:33:52.946Z,12.80
2019-03-10T19:38:48.787Z,12.80
2019-03-10T19:43:45.539Z,12.80
2019-03-10T19:48:42.632Z,12.70
2019-03-10T19:53:38.342Z,12.70
2019-03-10T19:58:34.901Z,12.70
2019-03-10T20:03:31.575Z,12.70
2019-03-10T20:08:27.389Z,12.70
2019-03-10T20:13:23.116Z,12.70
2019-03-10T20:18:18.962Z,12.70
2019-03-10T20:23:14.771Z,12.60
2019-03-10T20:28:12.176Z,12.50
2019-03-10T20:33:08.067Z,12.50
2019-03-10T20:38:04.075Z,12.40
2019-03-10T20:43:00.502Z,12.40
2019-03-10T20:47:57.653Z,12.40
2019-03-10T20:52:53.463Z,12.40
2019-03-10T20:57:50.502Z,12.30
2019-03-10T21:02:46.194Z,12.20
2019-03-10T21:07:43.080Z,12.20
2019-03-10T21:12:42.747Z,12.10
2019-03-10T21:17:38.076Z,12.10
2019-03-10T21:22:36.208Z,12.00
2019-03-10T21:27:32.163Z,12.00
2019-03-10T21:32:27.895Z,12.00
2019-03-10T21:37:23.668Z,12.00
2019-03-10T21:42:22.436Z,12.00
2019-03-10T21:47:18.390Z,11.90
2019-03-10T21:52:14.179Z,11.80
2019-03-10T21:57:10.024Z,11.80
2019-03-10T22:02:05.700Z,11.80
2019-03-10T22:07:02.897Z,11.80
2019-03-10T22:11:59.778Z,11.80
2019-03-10T22:16:55.642Z,11.80
2019-03-10T22:21:51.678Z,11.70
2019-03-10T22:26:49.356Z,11.60
2019-03-10T22:31:45.058Z,11.40
2019-03-10T22:36:40.822Z,11.10
2019-03-10T22:41:36.514Z,10.90
2019-03-10T22:46:32.266Z,10.80
2019-03-10T22:51:28.075Z,10.60
2019-03-10T22:56:25.052Z,10.40
2019-03-10T23:01:24.358Z,10.30
2019-03-10T23:06:20.224Z,10.20
2019-03-10T23:11:16.046Z,10.10
2019-03-10T23:16:11.989Z,9.90
2019-03-10T23:21:07.772Z,9.70
2019-03-10T23:26:03.627Z,9.70
2019-03-10T23:31:00.448Z,9.60
2019-03-10T23:35:58.388Z,9.60
2019-03-10T23:40:54.327Z,9.50
2019-03-10T23:45:50.236Z,9.50
2019-03-10T23:50:45.998Z,10.50
2019-03-10T23:55:43.009Z,11.20
